Time;durP1;ratioP1;P1;durP2;ratioP2;P2;SDS_P1;SDS_P2;PMS_P1;PMS_P2;Temp;Humidity;BMP_temperature;BMP_pressure;BME280_temperature;BME280_humidity;BME280_pressure;Samples;Min_cycle;Max_cycle;Signal;HPM_P1;HPM_P2
2022/10/03 00:00:10;;;;;;;20.02;3.08;;;10.20;99.90;;;;;;5002892;28;20050;-62
2022/10/03 00:02:47;;;;;;;16.83;3.28;;;10.10;99.90;;;;;;5004957;28;20050;-62
2022/10/03 00:05:43;;;;;;;15.82;2.70;;;10.10;99.90;;;;;;5008595;28;20052;-61
2022/10/03 00:08:27;;;;;;;18.73;3.25;;;10.10;99.90;;;;;;5019424;28;20128;-61
2022/10/03 00:11:17;;;;;;;12.77;2.83;;;10.10;99.90;;;;;;5008564;28;20057;-62
2022/10/03 00:14:12;;;;;;;13.25;2.83;;;10.20;99.90;;;;;;5026052;28;20061;-62
2022/10/03 00:16:48;;;;;;;15.53;2.93;;;10.20;99.90;;;;;;5009269;28;20072;-61
2022/10/03 00:19:25;;;;;;;16.55;3.22;;;10.10;99.90;;;;;;5025749;28;20072;-61
2022/10/03 00:22:21;;;;;;;16.73;2.80;;;10.30;99.90;;;;;;5026525;28;20037;-61
2022/10/03 00:25:11;;;;;;;15.77;2.75;;;10.30;99.90;;;;;;5026826;28;20052;-62
2022/10/03 00:28:01;;;;;;;15.60;3.13;;;10.40;99.90;;;;;;5026085;28;20512;-61
2022/10/03 00:30:29;;;;;;;13.18;2.35;;;10.40;99.90;;;;;;5025897;28;20115;-60
2022/10/03 00:33:07;;;;;;;18.25;2.80;;;10.40;99.90;;;;;;5026055;28;20053;-61
2022/10/03 00:35:54;;;;;;;15.40;2.83;;;10.60;99.90;;;;;;5026115;28;20053;-62
2022/10/03 00:38:29;;;;;;;17.30;2.75;;;10.70;99.90;;;;;;5008775;28;20052;-62
2022/10/03 00:41:16;;;;;;;14.25;2.55;;;10.60;99.90;;;;;;5027057;28;20077;-61
2022/10/03 00:44:09;;;;;;;17.00;3.55;;;10.50;99.90;;;;;;5027688;28;20747;-61
2022/10/03 00:46:56;;;;;;;16.42;2.92;;;10.70;99.90;;;;;;5026048;28;20045;-61
2022/10/03 00:49:27;;;;;;;18.15;2.92;;;10.50;99.90;;;;;;5025638;28;20138;-61
2022/10/03 00:52:18;;;;;;;19.80;3.63;;;10.40;99.90;;;;;;5025729;28;20051;-61
2022/10/03 00:54:46;;;;;;;14.65;3.10;;;10.40;99.90;;;;;;5026493;28;20509;-62
2022/10/03 00:57:21;;;;;;;16.85;3.70;;;10.50;99.90;;;;;;5025891;28;20085;-60
2022/10/03 01:00:25;;;;;;;14.90;2.70;;;10.60;99.90;;;;;;5026693;28;20042;-61
2022/10/03 01:02:51;;;;;;;18.45;2.70;;;10.40;99.90;;;;;;5026228;28;20287;-62
2022/10/03 01:05:38;;;;;;;15.07;2.92;;;10.40;99.90;;;;;;5022295;28;20124;-62
2022/10/03 01:08:22;;;;;;;12.77;2.28;;;10.50;99.90;;;;;;5018249;28;20389;-61
2022/10/03 01:11:16;;;;;;;18.05;2.92;;;10.40;99.90;;;;;;5026565;28;20049;-61
2022/10/03 01:14:09;;;;;;;18.08;3.38;;;10.50;99.90;;;;;;4990239;28;20153;-61
2022/10/03 01:16:52;;;;;;;13.90;2.60;;;10.60;99.90;;;;;;5025754;28;20065;-62
2022/10/03 01:19:59;;;;;;;12.73;2.50;;;10.50;99.90;;;;;;5023599;28;20136;-61
2022/10/03 01:23:06;;;;;;;15.35;2.50;;;10.50;99.90;;;;;;5025705;28;20056;-62
2022/10/03 01:25:35;;;;;;;10.27;2.50;;;10.60;99.90;;;;;;5025889;28;20049;-62
2022/10/03 01:31:13;;;;;;;14.82;2.60;;;10.60;99.90;;;;;;5025065;28;20179;-62
2022/10/03 01:33:53;;;;;;;16.77;2.92;;;10.60;99.90;;;;;;5025224;28;20129;-62
2022/10/03 01:36:51;;;;;;;13.52;2.72;;;10.70;99.90;;;;;;5025639;28;20049;-61
2022/10/03 01:39:46;;;;;;;14.93;2.40;;;10.60;99.90;;;;;;5025737;28;20114;-61
2022/10/03 01:42:37;;;;;;;16.95;3.00;;;10.80;99.90;;;;;;4977548;28;20103;-61
2022/10/03 01:45:21;;;;;;;15.85;2.88;;;10.90;99.90;;;;;;5024708;28;20049;-62
2022/10/03 01:47:56;;;;;;;11.93;2.00;;;11.00;99.90;;;;;;5025536;28;20057;-62
2022/10/03 01:50:30;;;;;;;12.70;2.03;;;11.00;99.90;;;;;;5024269;28;20053;-62
2022/10/03 01:53:22;;;;;;;11.30;2.60;;;11.10;99.90;;;;;;5025404;28;20041;-62
2022/10/03 01:56:04;;;;;;;11.75;2.13;;;11.10;99.90;;;;;;5025448;28;20046;-61
2022/10/03 01:58:57;;;;;;;12.05;2.00;;;11.10;99.90;;;;;;5025347;28;20034;-62
2022/10/03 02:01:42;;;;;;;14.85;2.50;;;11.30;99.90;;;;;;5025607;28;20041;-61
2022/10/03 02:04:14;;;;;;;14.48;2.55;;;11.20;99.90;;;;;;5023926;28;20043;-61
2022/10/03 02:07:16;;;;;;;13.00;2.28;;;11.10;99.90;;;;;;5018566;28;20373;-62
2022/10/03 02:09:57;;;;;;;13.20;1.92;;;10.90;99.90;;;;;;5005612;28;20046;-61
2022/10/03 02:12:33;;;;;;;12.65;2.08;;;10.80;99.90;;;;;;5004910;28;20042;-61
2022/10/03 02:15:01;;;;;;;12.07;2.60;;;10.70;99.90;;;;;;5005349;28;20444;-61
2022/10/03 02:17:51;;;;;;;10.65;2.58;;;10.70;99.90;;;;;;5004669;28;20052;-62
2022/10/03 02:21:04;;;;;;;12.88;2.47;;;10.70;99.90;;;;;;5004450;28;20057;-61
2022/10/03 02:23:30;;;;;;;16.50;3.08;;;10.90;99.90;;;;;;4924416;29;20075;-61
2022/10/03 02:26:20;;;;;;;14.52;2.40;;;10.80;99.90;;;;;;4924768;29;20123;-61
2022/10/03 02:29:24;;;;;;;17.58;2.45;;;10.80;99.90;;;;;;4980152;28;20375;-60
2022/10/03 02:31:59;;;;;;;13.48;2.47;;;10.90;99.90;;;;;;5004383;28;20636;-61
2022/10/03 02:34:43;;;;;;;14.50;2.10;;;10.80;99.90;;;;;;5004327;28;20049;-62
2022/10/03 02:37:38;;;;;;;17.35;2.53;;;10.80;99.90;;;;;;5005237;28;20042;-61
2022/10/03 02:40:33;;;;;;;12.30;2.10;;;10.80;99.90;;;;;;4964273;28;20145;-61
2022/10/03 02:43:24;;;;;;;13.63;2.60;;;10.90;99.90;;;;;;4934248;28;20040;-61
2022/10/03 02:46:11;;;;;;;13.82;2.78;;;10.80;99.90;;;;;;4987705;28;20111;-61
2022/10/03 02:49:03;;;;;;;15.02;2.60;;;10.70;99.90;;;;;;5003227;28;20132;-61
2022/10/03 02:52:01;;;;;;;16.10;2.33;;;10.60;99.90;;;;;;5004734;28;20046;-62
2022/10/03 02:54:35;;;;;;;14.15;2.30;;;10.80;99.90;;;;;;5004465;28;20600;-61
2022/10/03 02:57:52;;;;;;;15.45;2.20;;;10.70;99.90;;;;;;5003708;28;20046;-62
2022/10/03 03:00:34;;;;;;;10.77;1.95;;;10.70;99.90;;;;;;4923633;29;20786;-62
2022/10/03 03:03:19;;;;;;;11.70;2.20;;;10.60;99.90;;;;;;4908197;29;20056;-62
2022/10/03 03:06:15;;;;;;;17.42;3.40;;;10.60;99.90;;;;;;4983430;28;20062;-62
2022/10/03 03:08:59;;;;;;;16.98;2.50;;;10.70;99.90;;;;;;5006435;28;20056;-60
2022/10/03 03:11:46;;;;;;;12.95;2.25;;;10.70;99.90;;;;;;5004455;28;20128;-61
2022/10/03 03:14:42;;;;;;;12.38;2.08;;;10.90;99.90;;;;;;5003734;28;20489;-61
2022/10/03 03:18:01;;;;;;;15.05;2.53;;;10.90;99.90;;;;;;5003411;28;20476;-62
2022/10/03 03:21:03;;;;;;;19.35;2.60;;;10.80;99.90;;;;;;4923432;29;20427;-62
2022/10/03 03:23:49;;;;;;;14.38;2.63;;;10.90;99.90;;;;;;4922967;29;20119;-62
2022/10/03 03:26:22;;;;;;;15.68;2.78;;;10.80;99.90;;;;;;4998920;28;20053;-61
2022/10/03 03:29:13;;;;;;;13.02;2.17;;;10.90;99.90;;;;;;4985373;28;20128;-61
2022/10/03 03:31:44;;;;;;;11.43;2.22;;;10.70;99.90;;;;;;5003800;28;20042;-62
2022/10/03 03:34:33;;;;;;;12.27;2.65;;;10.50;99.90;;;;;;5002535;28;20057;-62
2022/10/03 03:37:27;;;;;;;20.42;2.80;;;10.50;99.90;;;;;;5002948;28;20046;-62
2022/10/03 03:40:01;;;;;;;14.85;2.40;;;10.50;99.90;;;;;;5004302;28;20052;-61
2022/10/03 03:42:51;;;;;;;11.45;2.30;;;10.60;99.90;;;;;;5004166;28;20130;-60
2022/10/03 03:45:41;;;;;;;13.45;2.67;;;10.40;99.90;;;;;;5003952;28;20054;-61
2022/10/03 03:48:11;;;;;;;9.90;2.00;;;10.30;99.90;;;;;;5002778;28;20049;-61
2022/10/03 03:51:16;;;;;;;16.33;2.40;;;10.40;99.90;;;;;;5003616;28;20058;-61
2022/10/03 03:53:45;;;;;;;13.30;2.35;;;10.50;99.90;;;;;;4985949;28;20054;-62
2022/10/03 03:56:26;;;;;;;13.27;2.47;;;10.40;99.90;;;;;;5003588;28;20046;-59
2022/10/03 03:59:12;;;;;;;11.20;2.53;;;10.10;99.90;;;;;;5004041;28;20068;-61
2022/10/03 04:02:05;;;;;;;15.25;3.08;;;10.10;99.90;;;;;;5003688;28;20096;-62
2022/10/03 04:04:51;;;;;;;13.50;3.15;;;10.10;99.90;;;;;;5002629;28;20397;-61
2022/10/03 04:07:49;;;;;;;15.32;3.72;;;10.10;99.90;;;;;;4995747;28;20050;-61
2022/10/03 04:10:48;;;;;;;12.32;2.60;;;10.10;99.90;;;;;;5002962;28;20042;-62
2022/10/03 04:13:33;;;;;;;14.82;2.50;;;10.20;99.90;;;;;;5003556;28;20037;-62
2022/10/03 04:19:19;;;;;;;14.73;2.28;;;10.30;99.90;;;;;;5002573;28;20664;-61
2022/10/03 04:21:54;;;;;;;14.52;2.30;;;10.10;99.90;;;;;;5003880;28;20054;-61
2022/10/03 04:24:39;;;;;;;;;;;10.10;99.90;;;;;;5004113;28;20268;-60
2022/10/03 04:27:17;;;;;;;18.23;2.78;;;10.20;99.90;;;;;;5003444;28;20282;-61
2022/10/03 04:30:08;;;;;;;13.20;2.80;;;10.10;99.90;;;;;;5003567;28;20092;-61
2022/10/03 04:32:47;;;;;;;14.10;2.38;;;10.30;99.90;;;;;;5002947;28;20046;-62
2022/10/03 04:35:37;;;;;;;15.48;3.03;;;10.30;99.90;;;;;;5003540;28;20441;-59
2022/10/03 04:38:12;;;;;;;14.10;2.63;;;10.30;99.90;;;;;;4985724;28;20132;-58
2022/10/03 04:40:46;;;;;;;11.68;2.42;;;10.10;99.90;;;;;;5003147;28;20093;-62
2022/10/03 04:43:33;;;;;;;12.48;2.47;;;10.20;99.90;;;;;;5002677;28;20072;-62
2022/10/03 04:46:22;;;;;;;15.43;2.92;;;10.10;99.90;;;;;;5004080;28;20484;-61
2022/10/03 04:49:13;;;;;;;14.68;2.85;;;10.20;99.90;;;;;;5003570;28;20382;-62
2022/10/03 04:51:56;;;;;;;13.15;2.55;;;10.20;99.90;;;;;;5006371;28;20144;-59
2022/10/03 04:54:46;;;;;;;8.60;2.20;;;10.10;99.90;;;;;;5006968;28;20042;-62
2022/10/03 04:57:27;;;;;;;13.10;2.67;;;10.10;99.90;;;;;;5006840;28;20057;-61
2022/10/03 05:00:22;;;;;;;15.00;2.20;;;10.00;99.90;;;;;;5006488;28;20050;-61
2022/10/03 05:02:54;;;;;;;12.57;2.40;;;10.10;99.90;;;;;;4975214;28;20058;-60
2022/10/03 05:05:38;;;;;;;11.18;2.22;;;10.10;99.90;;;;;;5007774;28;20696;-61
2022/10/03 05:08:27;;;;;;;15.57;3.17;;;10.00;99.90;;;;;;5017840;28;20064;-61
2022/10/03 05:10:56;;;;;;;11.35;2.72;;;10.00;99.90;;;;;;5025849;28;20045;-61
2022/10/03 05:13:50;;;;;;;14.13;2.95;;;10.10;99.90;;;;;;5025535;28;20132;-61
2022/10/03 05:16:25;;;;;;;15.90;3.33;;;10.20;99.90;;;;;;5025859;28;20096;-61
2022/10/03 05:19:05;;;;;;;;;;;10.20;99.90;;;;;;5025037;28;20408;-61
2022/10/03 05:21:55;;;;;;;15.77;2.70;;;10.10;99.90;;;;;;5026029;28;19921;-61
2022/10/03 05:24:44;;;;;;;14.80;3.00;;;10.00;99.90;;;;;;5025725;28;20117;-60
2022/10/03 05:27:27;;;;;;;10.70;3.08;;;10.10;99.90;;;;;;5025648;28;20041;-61
2022/10/03 05:30:19;;;;;;;14.23;3.40;;;10.10;99.90;;;;;;5006754;28;20072;-62
2022/10/03 05:33:02;;;;;;;12.55;2.50;;;9.90;99.90;;;;;;5024195;28;20049;-61
2022/10/03 05:35:43;;;;;;;12.60;2.72;;;10.10;99.90;;;;;;5025679;28;20045;-60
2022/10/03 05:38:16;;;;;;;15.45;2.22;;;10.00;99.90;;;;;;5025000;28;20452;-61
2022/10/03 05:41:01;;;;;;;13.23;2.45;;;10.10;99.90;;;;;;5024927;28;20412;-62
2022/10/03 05:43:35;;;;;;;16.52;2.83;;;10.00;99.90;;;;;;5024976;28;20130;-61
2022/10/03 05:46:10;;;;;;;13.82;3.35;;;10.10;99.90;;;;;;5024850;28;20096;-62
2022/10/03 05:48:57;;;;;;;14.77;2.92;;;9.90;99.90;;;;;;5024403;28;20124;-62
2022/10/03 05:51:48;;;;;;;11.38;2.53;;;10.00;99.90;;;;;;5024729;28;20368;-62
2022/10/03 05:54:29;;;;;;;13.68;2.65;;;9.90;99.90;;;;;;5023829;28;20049;-61
2022/10/03 05:57:25;;;;;;;14.02;2.60;;;9.90;99.90;;;;;;5024676;28;20055;-61
2022/10/03 06:00:01;;;;;;;13.10;3.22;;;9.80;99.90;;;;;;5024193;28;20049;-62
2022/10/03 06:03:12;;;;;;;13.98;2.92;;;9.90;99.90;;;;;;5006463;28;20029;-62
2022/10/03 06:06:00;;;;;;;11.75;2.42;;;9.70;99.90;;;;;;4999815;28;20100;-61
2022/10/03 06:08:47;;;;;;;10.75;2.40;;;9.80;99.90;;;;;;5009761;28;20046;-61
2022/10/03 06:11:31;;;;;;;12.57;2.50;;;9.80;99.90;;;;;;5004513;28;20042;-61
2022/10/03 06:14:16;;;;;;;12.23;2.70;;;9.80;99.90;;;;;;5004511;28;20046;-61
2022/10/03 06:17:26;;;;;;;10.98;2.08;;;10.00;99.90;;;;;;5004924;28;20372;-62
2022/10/03 06:20:09;;;;;;;11.95;2.28;;;9.90;99.90;;;;;;4973621;28;20050;-61
2022/10/03 06:23:06;;;;;;;13.40;2.45;;;9.90;99.90;;;;;;5005819;28;20050;-61
2022/10/03 06:26:03;;;;;;;15.05;2.80;;;9.90;99.90;;;;;;5005460;28;20367;-61
2022/10/03 06:29:01;;;;;;;19.00;3.35;;;10.00;99.90;;;;;;5004829;28;20085;-62
2022/10/03 06:31:50;;;;;;;14.48;2.75;;;9.90;99.90;;;;;;4960316;28;20058;-61
2022/10/03 06:34:54;;;;;;;12.77;3.03;;;10.00;99.90;;;;;;5004162;28;20420;-61
2022/10/03 06:37:51;;;;;;;10.70;2.88;;;10.20;99.90;;;;;;4924190;29;20420;-61
2022/10/03 06:40:30;;;;;;;10.15;2.03;;;10.20;99.90;;;;;;5004771;28;20054;-61
2022/10/03 06:43:21;;;;;;;14.23;2.85;;;10.20;99.90;;;;;;5004407;28;20060;-61
2022/10/03 06:46:18;;;;;;;14.52;2.60;;;10.30;99.90;;;;;;5004982;28;20045;-62
2022/10/03 06:49:00;;;;;;;9.70;2.70;;;10.50;99.90;;;;;;5003711;28;20229;-61
2022/10/03 06:51:46;;;;;;;18.65;2.92;;;10.50;99.90;;;;;;5004339;28;20111;-60
2022/10/03 06:54:49;;;;;;;13.55;2.60;;;10.60;99.90;;;;;;5004751;28;20481;-60
2022/10/03 06:57:42;;;;;;;10.63;2.40;;;10.60;99.90;;;;;;5004681;28;20049;-61
2022/10/03 07:00:14;;;;;;;16.45;2.75;;;10.60;99.90;;;;;;5004320;28;20060;-61
2022/10/03 07:02:59;;;;;;;14.35;2.83;;;10.90;99.90;;;;;;5003614;28;20680;-61
2022/10/03 07:05:27;;;;;;;15.17;2.57;;;10.80;99.90;;;;;;5006012;28;20049;-61
2022/10/03 07:08:30;;;;;;;10.15;2.70;;;10.70;99.90;;;;;;5013146;28;20065;-62
2022/10/03 07:11:33;;;;;;;9.63;2.60;;;10.60;99.90;;;;;;4986592;28;20507;-61
2022/10/03 07:14:23;;;;;;;10.18;2.80;;;10.80;99.90;;;;;;5004467;28;20554;-60
2022/10/03 07:17:14;;;;;;;13.73;2.30;;;10.90;99.90;;;;;;5004073;28;20123;-61
2022/10/03 07:20:18;;;;;;;13.52;2.85;;;11.10;99.90;;;;;;5003453;28;20472;-61
2022/10/03 07:23:23;;;;;;;14.75;2.60;;;11.20;99.90;;;;;;5004059;28;20128;-62
2022/10/03 07:25:58;;;;;;;10.40;2.65;;;11.40;99.90;;;;;;4963339;28;20065;-61
2022/10/03 07:28:30;;;;;;;11.85;2.58;;;11.40;99.90;;;;;;4986210;28;20394;-61
2022/10/03 07:31:31;;;;;;;12.88;2.33;;;11.60;99.90;;;;;;5003667;28;20073;-61
2022/10/03 07:34:14;;;;;;;14.90;2.60;;;11.60;99.90;;;;;;5002497;28;20053;-61
2022/10/03 07:40:02;;;;;;;11.88;2.50;;;11.90;99.90;;;;;;5003755;28;20099;-59
2022/10/03 07:42:59;;;;;;;14.50;2.55;;;11.90;99.90;;;;;;5003238;28;20053;-61
2022/10/03 07:45:33;;;;;;;12.13;2.53;;;12.00;99.90;;;;;;5003551;28;20042;-60
2022/10/03 07:48:32;;;;;;;12.43;2.47;;;12.30;99.90;;;;;;5002980;28;20448;-61
2022/10/03 07:51:17;;;;;;;12.63;2.22;;;12.40;99.90;;;;;;5003253;28;20042;-62
2022/10/03 07:53:45;;;;;;;11.98;2.40;;;12.50;99.90;;;;;;5004160;28;20050;-61
2022/10/03 07:56:26;;;;;;;12.88;2.22;;;12.60;99.90;;;;;;5003737;28;20437;-61
2022/10/03 07:59:06;;;;;;;9.90;1.88;;;12.80;99.90;;;;;;5003359;28;20050;-62
2022/10/03 08:01:41;;;;;;;10.32;2.10;;;12.90;99.90;;;;;;5002855;28;20144;-61
2022/10/03 08:04:36;;;;;;;10.50;2.25;;;13.10;99.90;;;;;;5003098;28;20139;-61
2022/10/03 08:07:27;;;;;;;7.78;1.55;;;13.00;99.90;;;;;;5011938;28;20053;-62
2022/10/03 08:10:24;;;;;;;9.57;2.15;;;13.20;99.90;;;;;;5023285;28;20483;-61
2022/10/03 08:12:59;;;;;;;9.82;2.20;;;13.30;99.90;;;;;;5023207;28;20053;-62
2022/10/03 08:15:55;;;;;;;10.70;2.10;;;13.40;99.90;;;;;;5022707;28;20068;-62
2022/10/03 08:18:41;;;;;;;;;;;13.50;99.90;;;;;;5022608;28;20053;-61
2022/10/03 08:21:18;;;;;;;10.80;1.95;;;13.70;99.90;;;;;;5023310;28;20343;-61
2022/10/03 08:24:08;;;;;;;13.88;2.38;;;13.80;99.90;;;;;;5024614;28;20045;-62
2022/10/03 08:26:46;;;;;;;8.73;1.80;;;13.90;99.90;;;;;;5026076;28;20137;-62
2022/10/03 08:29:23;;;;;;;10.75;1.83;;;14.10;99.90;;;;;;5026825;28;20572;-62
2022/10/03 08:32:16;;;;;;;12.55;2.13;;;14.20;99.90;;;;;;5026283;28;20049;-62
2022/10/03 08:35:04;;;;;;;10.05;1.88;;;14.20;99.90;;;;;;5027253;28;20404;-62
2022/10/03 08:37:51;;;;;;;11.70;1.73;;;14.30;99.90;;;;;;5026483;28;20427;-62
2022/10/03 08:40:38;;;;;;;9.18;1.42;;;14.40;99.90;;;;;;5008811;28;20111;-62
2022/10/03 08:43:23;;;;;;;8.50;1.48;;;14.50;99.90;;;;;;5026705;28;20718;-62
2022/10/03 08:45:54;;;;;;;10.88;1.90;;;14.70;99.90;;;;;;5026460;28;20054;-62
2022/10/03 08:48:39;;;;;;;10.45;1.55;;;14.70;99.90;;;;;;5007316;28;20060;-62
2022/10/03 08:51:33;;;;;;;8.88;2.03;;;14.90;99.90;;;;;;5026652;28;20049;-62
2022/10/03 08:54:32;;;;;;;5.70;1.20;;;14.90;99.90;;;;;;5026411;28;20060;-62
2022/10/03 08:57:25;;;;;;;8.85;1.75;;;15.00;99.90;;;;;;5026332;28;20054;-62
2022/10/03 09:00:09;;;;;;;9.60;1.83;;;15.10;99.90;;;;;;5025837;28;20046;-62
2022/10/03 09:02:58;;;;;;;9.68;1.40;;;15.60;99.90;;;;;;5025613;28;20056;-62
2022/10/03 09:05:47;;;;;;;9.20;1.50;;;16.30;99.90;;;;;;5021133;28;20042;-62
2022/10/03 09:08:38;;;;;;;9.90;2.08;;;17.20;99.90;;;;;;5019381;28;20053;-62
2022/10/03 09:11:19;;;;;;;7.55;1.85;;;17.60;99.90;;;;;;5026030;28;20141;-61
2022/10/03 09:14:10;;;;;;;9.07;1.33;;;17.90;99.90;;;;;;5025890;28;20050;-62
2022/10/03 09:16:51;;;;;;;8.40;1.30;;;18.50;99.90;;;;;;4988504;28;20130;-62
2022/10/03 09:19:59;;;;;;;8.63;1.55;;;18.90;99.90;;;;;;5024553;28;20487;-62
2022/10/03 09:22:33;;;;;;;8.02;1.70;;;19.60;99.90;;;;;;5026330;28;20061;-62
2022/10/03 09:25:36;;;;;;;8.88;1.70;;;19.30;99.90;;;;;;5026044;28;20052;-62
2022/10/03 09:28:38;;;;;;;9.02;1.48;;;19.80;99.90;;;;;;5025968;28;20052;-62
2022/10/03 09:31:16;;;;;;;6.85;1.10;;;19.30;99.90;;;;;;5025415;28;20048;-62
2022/10/03 09:34:00;;;;;;;8.95;1.33;;;19.30;99.90;;;;;;5024463;28;20717;-62
2022/10/03 09:36:40;;;;;;;6.13;1.10;;;19.40;99.90;;;;;;5025675;28;20132;-62
2022/10/03 09:39:55;;;;;;;4.90;1.00;;;19.40;99.90;;;;;;5025061;28;20370;-62
2022/10/03 09:42:55;;;;;;;7.38;1.13;;;19.60;99.90;;;;;;5007495;28;20656;-63
2022/10/03 09:45:45;;;;;;;5.38;1.30;;;19.90;99.90;;;;;;5007460;28;20049;-61
2022/10/03 09:48:41;;;;;;;10.88;1.77;;;20.00;99.90;;;;;;5024664;28;20041;-62
2022/10/03 09:51:08;;;;;;;5.00;1.13;;;20.20;99.90;;;;;;5025189;28;20130;-61
2022/10/03 09:53:52;;;;;;;6.20;1.42;;;19.80;99.90;;;;;;5025521;28;20049;-62
2022/10/03 09:56:36;;;;;;;5.22;1.15;;;19.90;99.90;;;;;;5025990;28;20046;-62
2022/10/03 09:59:42;;;;;;;7.78;1.00;;;20.20;99.90;;;;;;5025221;28;20132;-62
2022/10/03 10:02:27;;;;;;;5.18;1.20;;;20.60;99.90;;;;;;5024555;28;20053;-61
2022/10/03 10:05:27;;;;;;;6.75;1.27;;;20.30;99.90;;;;;;5023240;28;20077;-62
2022/10/03 10:08:27;;;;;;;6.60;1.05;;;19.50;99.90;;;;;;5013066;28;20088;-62
2022/10/03 10:11:23;;;;;;;9.68;2.00;;;19.80;99.90;;;;;;5004878;28;20455;-61
2022/10/03 10:14:35;;;;;;;6.15;1.02;;;19.60;99.90;;;;;;5005196;28;20084;-62
2022/10/03 10:17:22;;;;;;;5.18;0.90;;;19.30;99.90;;;;;;4923992;29;20126;-61
2022/10/03 10:20:06;;;;;;;5.57;1.27;;;19.80;99.90;;;;;;4925099;29;20652;-62
2022/10/03 10:22:34;;;;;;;4.72;0.93;;;19.80;99.90;;;;;;4987405;28;20084;-62
2022/10/03 10:25:19;;;;;;;5.43;1.00;;;19.40;99.90;;;;;;5004973;28;20081;-62
2022/10/03 10:27:54;;;;;;;8.65;1.08;;;19.40;99.90;;;;;;5004502;28;20168;-62
2022/10/03 10:30:27;;;;;;;7.32;1.20;;;19.80;99.90;;;;;;4987714;28;20500;-62
2022/10/03 10:32:58;;;;;;;7.20;1.48;;;19.60;99.90;;;;;;5004134;28;20043;-61
2022/10/03 10:36:05;;;;;;;5.82;1.45;;;20.30;99.90;;;;;;5004295;28;20046;-62
2022/10/03 10:39:09;;;;;;;5.45;1.00;;;19.90;99.90;;;;;;5004045;28;20077;-60
2022/10/03 10:41:40;;;;;;;6.40;1.30;;;19.90;99.90;;;;;;5003566;28;20282;-61
2022/10/03 10:44:24;;;;;;;7.57;1.50;;;19.90;99.90;;;;;;5004153;28;20133;-62
2022/10/03 10:47:22;;;;;;;4.80;1.13;;;19.80;99.90;;;;;;4986590;28;20045;-62
2022/10/03 10:49:56;;;;;;;4.53;1.17;;;19.90;99.90;;;;;;5010819;28;20411;-64
2022/10/03 10:52:34;;;;;;;5.18;1.13;;;19.80;99.90;;;;;;5023133;28;20111;-64
2022/10/03 10:55:03;;;;;;;3.75;0.98;;;20.20;99.90;;;;;;5024037;28;20153;-62
2022/10/03 10:57:57;;;;;;;7.30;1.15;;;19.30;99.90;;;;;;5024220;28;20048;-62
2022/10/03 11:00:41;;;;;;;7.03;1.30;;;19.60;99.90;;;;;;5024156;28;20042;-63
2022/10/03 11:03:29;;;;;;;6.75;0.88;;;20.00;99.90;;;;;;5023491;28;20083;-62
2022/10/03 11:06:37;;;;;;;8.93;1.50;;;20.10;99.90;;;;;;5017327;28;20049;-63
2022/10/03 11:09:15;;;;;;;5.57;1.00;;;19.80;99.90;;;;;;4987059;28;20057;-63
2022/10/03 11:12:00;;;;;;;4.45;1.02;;;19.60;99.90;;;;;;4987005;28;20124;-63
2022/10/03 11:14:44;;;;;;;4.28;0.88;;;19.70;99.90;;;;;;4986599;28;20054;-62
2022/10/03 11:17:42;;;;;;;4.57;0.85;;;19.70;99.90;;;;;;5003254;28;20050;-62
2022/10/03 11:20:46;;;;;;;5.63;0.80;;;20.10;99.90;;;;;;5020532;28;20057;-63
2022/10/03 11:23:20;;;;;;;7.07;1.20;;;19.90;99.90;;;;;;5022384;28;20064;-63
2022/10/03 11:26:04;;;;;;;4.22;0.93;;;19.80;99.90;;;;;;5023678;28;20439;-63
2022/10/03 11:28:55;;;;;;;5.97;1.00;;;20.30;99.90;;;;;;5023356;28;20056;-62
2022/10/03 11:31:29;;;;;;;5.25;1.17;;;20.20;99.90;;;;;;5023392;28;20045;-63
2022/10/03 11:34:33;;;;;;;4.82;1.00;;;19.90;99.90;;;;;;5022499;28;20041;-63
2022/10/03 11:37:08;;;;;;;6.60;1.33;;;19.90;99.90;;;;;;5022070;28;20091;-63
2022/10/03 11:39:44;;;;;;;5.50;1.10;;;20.20;99.90;;;;;;5022044;28;20045;-63
2022/10/03 11:42:38;;;;;;;4.18;0.90;;;20.40;99.90;;;;;;5021896;28;20037;-62
2022/10/03 11:45:19;;;;;;;3.00;0.70;;;20.50;99.90;;;;;;5022470;28;20049;-63
2022/10/03 11:48:02;;;;;;;5.05;1.08;;;20.40;99.90;;;;;;5004389;28;20053;-63
2022/10/03 11:50:34;;;;;;;5.78;1.00;;;20.30;99.90;;;;;;5023030;28;20057;-63
2022/10/03 11:53:27;;;;;;;4.22;0.90;;;19.80;99.90;;;;;;5022890;28;20049;-63
2022/10/03 11:55:53;;;;;;;3.58;1.00;;;19.70;99.90;;;;;;5022468;28;20054;-63
2022/10/03 11:58:56;;;;;;;5.53;0.90;;;19.70;99.90;;;;;;5025081;28;20048;-63
2022/10/03 12:01:30;;;;;;;4.95;1.35;;;19.60;99.90;;;;;;5026918;28;20049;-63
2022/10/03 12:04:14;;;;;;;;;;;19.70;99.90;;;;;;5027867;28;20447;-64
2022/10/03 12:10:01;;;;;;;6.00;1.20;;;20.00;99.90;;;;;;5007964;28;20063;-63
2022/10/03 12:12:46;;;;;;;4.20;0.90;;;20.10;99.90;;;;;;4989802;28;20113;-63
2022/10/03 12:15:23;;;;;;;3.75;0.73;;;20.20;99.90;;;;;;5006692;28;20041;-62
2022/10/03 12:18:27;;;;;;;4.22;0.77;;;19.90;99.90;;;;;;5006806;28;20042;-63
2022/10/03 12:21:11;;;;;;;3.30;0.73;;;19.90;99.90;;;;;;5007678;28;20062;-63
2022/10/03 12:23:51;;;;;;;4.93;0.80;;;20.10;99.90;;;;;;5006807;28;20121;-64
2022/10/03 12:26:29;;;;;;;4.18;0.88;;;19.80;99.90;;;;;;5007459;28;20397;-63
2022/10/03 12:28:56;;;;;;;5.25;1.00;;;19.90;99.90;;;;;;5007106;28;20266;-63
2022/10/03 12:31:41;;;;;;;5.30;0.70;;;19.80;99.90;;;;;;5007321;28;20666;-62
2022/10/03 12:34:25;;;;;;;4.05;0.80;;;19.80;99.90;;;;;;5006446;28;20088;-63
2022/10/03 12:37:18;;;;;;;3.53;0.80;;;19.50;99.90;;;;;;5007366;28;20423;-63
2022/10/03 12:40:05;;;;;;;5.20;0.85;;;19.40;99.90;;;;;;5007391;28;20397;-63
2022/10/03 12:42:55;;;;;;;5.30;0.80;;;19.40;99.90;;;;;;5007117;28;20405;-63
2022/10/03 12:46:01;;;;;;;3.40;0.68;;;19.10;99.90;;;;;;5006793;28;20049;-63
2022/10/03 12:48:46;;;;;;;2.55;0.68;;;19.00;99.90;;;;;;5006328;28;20385;-63
2022/10/03 12:51:30;;;;;;;4.57;0.88;;;18.80;99.90;;;;;;5006257;28;20041;-63
2022/10/03 12:54:29;;;;;;;4.90;0.90;;;18.80;99.90;;;;;;5007304;28;20056;-63
2022/10/03 12:57:10;;;;;;;4.68;1.02;;;18.60;99.90;;;;;;5006805;28;20058;-63
2022/10/03 12:59:43;;;;;;;4.80;0.90;;;18.60;99.90;;;;;;5005952;28;20145;-62
2022/10/03 13:02:26;;;;;;;6.90;1.00;;;18.90;99.90;;;;;;4988385;28;20057;-63
2022/10/03 13:05:20;;;;;;;4.05;0.90;;;18.80;99.90;;;;;;5007050;28;20053;-63
2022/10/03 13:08:22;;;;;;;7.35;1.00;;;18.80;99.90;;;;;;4997243;28;20061;-63
2022/10/03 13:10:54;;;;;;;4.18;0.77;;;18.80;99.90;;;;;;5004957;28;20049;-63
2022/10/03 13:13:44;;;;;;;3.28;0.90;;;18.50;99.90;;;;;;5006054;28;20092;-62
2022/10/03 13:16:33;;;;;;;7.03;1.42;;;18.40;99.90;;;;;;5006246;28;20389;-63
2022/10/03 13:19:19;;;;;;;5.68;1.23;;;18.30;99.90;;;;;;5006459;28;20065;-63
2022/10/03 13:22:13;;;;;;;4.95;0.95;;;18.20;99.90;;;;;;5006284;28;20053;-63
2022/10/03 13:25:01;;;;;;;4.60;1.00;;;18.30;99.90;;;;;;4988738;28;20046;-62
2022/10/03 13:28:08;;;;;;;5.07;1.02;;;18.30;99.90;;;;;;5006849;28;20070;-62
2022/10/03 13:30:46;;;;;;;5.97;1.00;;;18.50;99.90;;;;;;5005017;28;20057;-62
2022/10/03 13:33:18;;;;;;;6.95;1.08;;;18.50;99.90;;;;;;5005181;28;20061;-63
2022/10/03 13:36:07;;;;;;;4.03;0.88;;;18.50;99.90;;;;;;5005545;28;20442;-63
2022/10/03 13:38:36;;;;;;;4.22;1.08;;;18.60;99.90;;;;;;4988296;28;20563;-62
2022/10/03 13:41:14;;;;;;;3.88;0.80;;;18.50;99.90;;;;;;4987803;28;20069;-63
2022/10/03 13:43:49;;;;;;;4.75;0.88;;;18.50;99.90;;;;;;5006119;28;20404;-63
2022/10/03 13:46:36;;;;;;;4.82;0.90;;;18.50;99.90;;;;;;5004952;28;20391;-63
2022/10/03 13:49:10;;;;;;;4.50;1.00;;;18.20;99.90;;;;;;5005950;28;20060;-63
2022/10/03 13:51:52;;;;;;;;;;;18.30;99.90;;;;;;5005084;28;20046;-63
2022/10/03 13:54:45;;;;;;;5.07;1.05;;;18.20;99.90;;;;;;5005435;28;20028;-62
2022/10/03 13:57:24;;;;;;;6.75;1.15;;;18.40;99.90;;;;;;5005371;28;20136;-63
2022/10/03 14:00:07;;;;;;;7.53;0.90;;;18.40;99.90;;;;;;5005634;28;20604;-63
2022/10/03 14:03:00;;;;;;;4.75;1.00;;;18.30;99.90;;;;;;5004735;28;20042;-63
2022/10/03 14:05:56;;;;;;;5.88;0.95;;;18.10;99.90;;;;;;5007300;28;20056;-63
2022/10/03 14:08:52;;;;;;;4.18;0.80;;;18.30;99.90;;;;;;5019072;28;20072;-63
2022/10/03 14:11:28;;;;;;;4.78;1.23;;;18.10;99.90;;;;;;5007636;28;20049;-63
2022/10/03 14:14:33;;;;;;;6.65;0.90;;;18.10;99.90;;;;;;5024383;28;20126;-63
2022/10/03 14:17:29;;;;;;;7.18;1.17;;;18.10;99.90;;;;;;5024231;28;20049;-64
2022/10/03 14:20:10;;;;;;;8.35;1.15;;;18.20;99.90;;;;;;5016571;28;20057;-63
2022/10/03 14:22:57;;;;;;;4.07;1.08;;;18.10;99.90;;;;;;5009124;28;20057;-62
2022/10/03 14:25:29;;;;;;;5.57;1.23;;;18.00;99.90;;;;;;5009288;28;20053;-63
2022/10/03 14:28:13;;;;;;;6.68;1.27;;;17.90;99.90;;;;;;5008966;28;20033;-62
2022/10/03 14:31:09;;;;;;;5.85;1.40;;;17.90;99.90;;;;;;5009921;28;20046;-63
2022/10/03 14:33:45;;;;;;;4.40;0.93;;;18.10;99.90;;;;;;5009658;28;20460;-64